createdAt,value
2019-04-06T00:00:47.277Z,26.23
2019-04-06T00:03:19.117Z,24.17
2019-04-06T00:05:51.166Z,26.17
2019-04-06T00:08:22.917Z,26.47
2019-04-06T00:10:55.311Z,25.90
2019-04-06T00:13:30.603Z,26.43
2019-04-06T00:16:02.403Z,27.97
2019-04-06T00:18:35.853Z,28.50
2019-04-06T00:21:07.701Z,23.70
2019-04-06T00:23:39.501Z,21.20
2019-04-06T00:26:11.198Z,27.03
2019-04-06T00:28:43.047Z,24.27
2019-04-06T00:31:30.765Z,20.37
2019-04-06T00:34:02.653Z,25.13
2019-04-06T00:36:34.427Z,21.67
2019-04-06T00:39:06.746Z,23.20
2019-04-06T00:41:41.658Z,22.67
2019-04-06T00:44:13.393Z,23.23
2019-04-06T00:46:45.084Z,21.07
2019-04-06T00:49:16.869Z,23.10
2019-04-06T00:51:48.659Z,21.03
2019-04-06T00:54:20.709Z,23.93
2019-04-06T00:56:52.523Z,25.03
2019-04-06T00:59:26.316Z,18.93
2019-04-06T01:02:00.675Z,26.93
2019-04-06T01:04:32.373Z,21.00
2019-04-06T01:07:04.033Z,22.43
2019-04-06T01:09:37.047Z,24.20
2019-04-06T01:12:10.429Z,25.97
2019-04-06T01:14:42.163Z,24.73
2019-04-06T01:17:20.675Z,21.60
2019-04-06T01:19:54.169Z,20.53
2019-04-06T01:22:25.909Z,20.47
2019-04-06T01:24:59.206Z,21.50
2019-04-06T01:27:31.950Z,25.13
2019-04-06T01:30:03.846Z,25.53
2019-04-06T01:32:35.669Z,23.73
2019-04-06T01:35:08.029Z,25.00
2019-04-06T01:37:40.153Z,22.83
2019-04-06T01:40:13.093Z,23.30
2019-04-06T01:42:48.702Z,23.33
2019-04-06T01:45:21.525Z,20.73
2019-04-06T01:47:53.718Z,27.03
2019-04-06T01:50:26.595Z,24.43
2019-04-06T01:53:00.854Z,22.03
2019-04-06T01:55:32.511Z,21.93
2019-04-06T01:58:04.991Z,22.53
2019-04-06T02:00:43.527Z,25.10
2019-04-06T02:03:15.221Z,24.90
2019-04-06T02:05:46.966Z,25.60
2019-04-06T02:08:18.449Z,24.63
2019-04-06T02:10:50.171Z,24.00
2019-04-06T02:13:21.977Z,18.33
2019-04-06T02:15:55.145Z,22.30
2019-04-06T02:18:29.645Z,20.37
2019-04-06T02:21:04.071Z,22.90
2019-04-06T02:23:35.947Z,23.60
2019-04-06T02:26:07.681Z,25.57
2019-04-06T02:28:46.661Z,21.40
2019-04-06T02:31:37.513Z,23.40
2019-04-06T02:34:43.077Z,25.97
2019-04-06T02:37:39.524Z,23.27
2019-04-06T02:40:21.503Z,25.40
2019-04-06T02:43:08.556Z,21.73
2019-04-06T02:45:40.182Z,22.70
2019-04-06T02:48:12.086Z,27.90
2019-04-06T02:50:44.043Z,20.83
2019-04-06T02:53:23.064Z,21.63
2019-04-06T02:55:55.538Z,27.03
2019-04-06T02:58:27.196Z,22.90
2019-04-06T03:01:03.022Z,21.20
2019-04-06T03:03:35.796Z,26.47
2019-04-06T03:06:07.598Z,24.07
2019-04-06T03:08:41.511Z,25.13
2019-04-06T03:11:13.101Z,22.77
2019-04-06T03:13:46.614Z,28.40
2019-04-06T03:16:18.452Z,21.23
2019-04-06T03:18:50.167Z,19.80
2019-04-06T03:21:22.765Z,23.03
2019-04-06T03:23:54.459Z,21.43
2019-04-06T03:26:26.293Z,24.80
2019-04-06T03:28:58.668Z,22.63
2019-04-06T03:31:31.497Z,22.30
2019-04-06T03:34:03.207Z,24.40
2019-04-06T03:36:35.196Z,19.87
2019-04-06T03:39:08.702Z,20.63
2019-04-06T03:41:40.343Z,24.80
2019-04-06T03:44:14.871Z,22.17
2019-04-06T03:46:46.685Z,19.17
2019-04-06T03:49:18.581Z,24.13
2019-04-06T03:51:50.409Z,24.97
2019-04-06T03:54:22.442Z,25.40
2019-04-06T03:56:54.081Z,26.60
2019-04-06T03:59:25.816Z,20.47
2019-04-06T04:01:59.666Z,24.47
2019-04-06T04:04:31.436Z,22.13
2019-04-06T04:07:03.458Z,25.73
2019-04-06T04:09:35.346Z,22.83
2019-04-06T04:12:07.066Z,24.30
2019-04-06T04:14:38.973Z,24.20
2019-04-06T04:17:10.586Z,24.97
2019-04-06T04:19:42.346Z,21.00
2019-04-06T04:22:13.973Z,27.10
2019-04-06T04:24:47.231Z,22.07
2019-04-06T04:27:29.589Z,27.27
2019-04-06T04:29:59.130Z,25.73
2019-04-06T04:32:31.029Z,22.33
2019-04-06T04:35:02.936Z,26.40
2019-04-06T04:37:34.731Z,23.40
2019-04-06T04:40:09.480Z,23.67
2019-04-06T04:42:41.222Z,27.43
2019-04-06T04:45:12.995Z,26.30
2019-04-06T04:47:45.094Z,24.93
2019-04-06T04:50:16.862Z,24.10
2019-04-06T04:52:48.542Z,25.50
2019-04-06T04:55:26.531Z,23.80
2019-04-06T04:58:00.288Z,22.10
2019-04-06T05:00:32.284Z,25.53
2019-04-06T05:03:03.920Z,26.33
2019-04-06T05:05:36.050Z,21.43
2019-04-06T05:08:07.632Z,19.50
2019-04-06T05:10:40.896Z,30.67
2019-04-06T05:13:12.719Z,22.53
2019-04-06T05:16:20.126Z,26.70
2019-04-06T05:18:51.750Z,31.33
2019-04-06T05:21:23.454Z,25.90
2019-04-06T05:23:56.169Z,23.23
2019-04-06T05:26:36.996Z,23.60
2019-04-06T05:29:01.512Z,22.07
2019-04-06T05:31:45.251Z,21.50
2019-04-06T05:34:19.392Z,24.50
2019-04-06T05:36:52.917Z,24.80
2019-04-06T05:39:24.550Z,26.50
2019-04-06T05:41:56.404Z,26.83
2019-04-06T05:44:29.636Z,24.97
2019-04-06T05:47:01.294Z,21.40
2019-04-06T05:49:33.005Z,20.63
2019-04-06T05:52:06.902Z,21.73
2019-04-06T05:54:40.232Z,25.53
2019-04-06T05:57:11.902Z,25.60
2019-04-06T05:59:43.815Z,24.63
2019-04-06T06:02:15.485Z,28.97
2019-04-06T06:04:51.728Z,32.63
2019-04-06T06:07:23.736Z,27.57
2019-04-06T06:09:58.642Z,23.70
2019-04-06T06:12:30.432Z,22.97
2019-04-06T06:15:04.396Z,21.53
2019-04-06T06:17:36.338Z,27.00
2019-04-06T06:20:08.756Z,22.67
2019-04-06T06:22:40.646Z,18.63
2019-04-06T06:25:13.025Z,19.93
2019-04-06T06:27:44.867Z,26.17
2019-04-06T06:30:16.816Z,18.83
2019-04-06T06:32:48.884Z,21.90
2019-04-06T06:35:20.918Z,22.67
2019-04-06T06:37:52.577Z,21.53
2019-04-06T06:40:27.712Z,24.00
2019-04-06T06:43:02.096Z,21.30
2019-04-06T06:45:33.728Z,20.67
2019-04-06T06:48:05.423Z,22.00
2019-04-06T06:50:37.598Z,18.87
2019-04-06T06:53:09.324Z,21.53
2019-04-06T06:55:43.816Z,25.80
2019-04-06T06:58:24.622Z,18.80
2019-04-06T07:00:49.063Z,21.93
2019-04-06T07:03:21.870Z,31.00
2019-04-06T07:05:53.774Z,26.87
2019-04-06T07:08:25.493Z,24.87
2019-04-06T07:10:57.260Z,23.13
2019-04-06T07:13:30.538Z,21.43
2019-04-06T07:16:02.481Z,22.43
2019-04-06T07:18:34.152Z,28.43
2019-04-06T07:21:06.294Z,23.97
2019-04-06T07:23:37.941Z,25.63
2019-04-06T07:26:09.820Z,20.13
2019-04-06T07:28:41.765Z,25.07
2019-04-06T07:31:13.538Z,22.67
2019-04-06T07:33:45.447Z,19.67
2019-04-06T07:36:17.176Z,19.13
2019-04-06T07:38:52.694Z,20.83
2019-04-06T07:41:24.500Z,21.40
2019-04-06T07:43:58.489Z,26.83
2019-04-06T07:46:30.146Z,20.23
2019-04-06T07:49:08.401Z,22.10
2019-04-06T07:51:35.418Z,20.13
2019-04-06T07:54:08.457Z,22.10
2019-04-06T07:56:40.447Z,22.30
2019-04-06T07:59:14.806Z,21.17
2019-04-06T08:01:48.721Z,24.13
2019-04-06T08:04:20.816Z,17.17
2019-04-06T08:06:52.804Z,24.50
2019-04-06T08:09:24.526Z,17.97
2019-04-06T08:11:56.450Z,22.60
2019-04-06T08:14:28.179Z,22.80
2019-04-06T08:16:59.834Z,19.10
2019-04-06T08:19:31.576Z,23.87
2019-04-06T08:22:03.361Z,24.00
2019-04-06T08:24:37.757Z,20.37
2019-04-06T08:27:10.005Z,24.23
2019-04-06T08:29:42.266Z,30.43
2019-04-06T08:32:14.351Z,27.73
2019-04-06T08:34:46.215Z,26.07
2019-04-06T08:37:18.011Z,41.47
2019-04-06T08:39:49.935Z,20.10
2019-04-06T08:42:22.136Z,22.93
2019-04-06T08:44:57.038Z,19.63
2019-04-06T08:47:28.591Z,20.87
2019-04-06T08:50:00.349Z,19.77
2019-04-06T08:52:32.159Z,22.27
2019-04-06T08:55:04.263Z,22.60
2019-04-06T08:57:36.199Z,19.33
2019-04-06T09:00:08.506Z,16.23
2019-04-06T09:02:40.891Z,18.43
2019-04-06T09:05:12.945Z,18.10
2019-04-06T09:07:46.353Z,18.57
2019-04-06T09:10:18.814Z,14.33
2019-04-06T09:12:50.815Z,17.43
2019-04-06T09:15:22.722Z,15.53
2019-04-06T09:17:54.601Z,13.40
2019-04-06T09:20:28.051Z,16.47
2019-04-06T09:22:59.978Z,14.57
2019-04-06T09:25:31.957Z,17.37
2019-04-06T09:28:03.775Z,15.23
2019-04-06T09:30:35.574Z,11.53
2019-04-06T09:33:07.267Z,15.47
2019-04-06T09:35:39.057Z,11.93
2019-04-06T09:38:19.147Z,17.93
2019-04-06T09:40:51.320Z,17.53
2019-04-06T09:43:23.276Z,13.83
2019-04-06T09:46:13.751Z,18.73
2019-04-06T09:49:07.080Z,16.53
2019-04-06T09:52:13.333Z,16.87
2019-04-06T09:55:08.470Z,13.13
2019-04-06T09:57:59.165Z,14.27
2019-04-06T10:00:50.412Z,13.43
2019-04-06T10:03:45.181Z,12.37
2019-04-06T10:06:45.195Z,16.37
2019-04-06T10:09:35.890Z,13.37
2019-04-06T10:12:29.979Z,20.47
2019-04-06T10:15:20.724Z,14.43
2019-04-06T10:18:10.636Z,17.93
2019-04-06T10:21:01.157Z,16.77
2019-04-06T10:23:52.452Z,21.20
2019-04-06T10:26:45.920Z,12.23
2019-04-06T10:29:47.714Z,13.90
2019-04-06T10:32:34.452Z,14.13
2019-04-06T10:35:12.050Z,14.20
2019-04-06T10:37:57.338Z,10.30
2019-04-06T10:40:47.448Z,14.87
2019-04-06T10:43:38.419Z,16.93
2019-04-06T10:46:26.361Z,16.87
2019-04-06T10:49:17.065Z,15.73
2019-04-06T10:52:12.846Z,11.40
2019-04-06T10:55:02.772Z,13.47
2019-04-06T10:57:45.068Z,11.60
2019-04-06T11:00:45.089Z,14.97
2019-04-06T11:03:27.562Z,13.73
2019-04-06T11:06:21.001Z,13.87
2019-04-06T11:09:10.425Z,12.77
2019-04-06T11:11:55.141Z,10.20
2019-04-06T11:14:44.384Z,14.13
2019-04-06T11:17:34.967Z,15.63
2019-04-06T11:20:26.466Z,15.33
2019-04-06T11:23:26.280Z,14.00
2019-04-06T11:26:15.349Z,16.50
2019-04-06T11:29:04.643Z,10.37
2019-04-06T11:31:47.675Z,14.57
2019-04-06T11:34:32.949Z,13.40
2019-04-06T11:37:28.814Z,11.70
2019-04-06T11:40:18.400Z,13.37
2019-04-06T11:43:25.288Z,14.27
2019-04-06T11:46:23.401Z,13.13
2019-04-06T11:49:13.991Z,14.27
2019-04-06T11:52:10.525Z,11.43
2019-04-06T11:54:57.323Z,11.47
2019-04-06T11:57:46.799Z,12.27
2019-04-06T12:00:30.135Z,15.13
2019-04-06T12:03:20.913Z,13.23
2019-04-06T12:06:23.582Z,11.50
2019-04-06T12:09:18.177Z,15.47
2019-04-06T12:12:02.124Z,14.63
2019-04-06T12:14:51.559Z,13.10
2019-04-06T12:17:40.946Z,13.67
2019-04-06T12:20:35.127Z,11.87
2019-04-06T12:23:25.689Z,14.13
2019-04-06T12:26:15.924Z,10.00
2019-04-06T12:29:10.817Z,9.97
2019-04-06T12:32:07.082Z,12.27
2019-04-06T12:35:01.297Z,11.07
2019-04-06T12:37:54.939Z,14.30
2019-04-06T12:40:48.205Z,16.53
2019-04-06T12:43:37.425Z,11.10
2019-04-06T12:46:28.559Z,13.27
2019-04-06T12:49:25.016Z,10.60
2019-04-06T12:52:15.812Z,11.67
2019-04-06T12:54:57.319Z,13.70
2019-04-06T12:57:51.003Z,14.00
2019-04-06T13:00:50.833Z,10.47
2019-04-06T13:03:48.744Z,12.23
2019-04-06T13:06:39.361Z,15.23
2019-04-06T13:09:32.838Z,14.20
2019-04-06T13:12:19.395Z,11.43
2019-04-06T13:14:59.672Z,14.50
2019-04-06T13:17:41.710Z,10.37
2019-04-06T13:20:25.521Z,13.10
2019-04-06T13:23:22.695Z,13.30
2019-04-06T13:26:18.427Z,11.13
2019-04-06T13:29:21.338Z,13.62
2019-04-06T13:32:05.361Z,9.30
2019-04-06T13:34:48.469Z,12.18
2019-04-06T13:37:45.453Z,12.20
2019-04-06T13:40:41.508Z,10.82
2019-04-06T13:43:21.984Z,14.67
2019-04-06T13:46:28.216Z,13.83
2019-04-06T13:49:27.251Z,12.28
2019-04-06T13:52:16.015Z,13.53
2019-04-06T13:55:12.773Z,17.50
2019-04-06T13:58:02.717Z,12.93
2019-04-06T14:01:17.112Z,11.80
2019-04-06T14:04:05.285Z,10.43
2019-04-06T14:06:47.293Z,15.00
2019-04-06T14:09:38.230Z,12.73
2019-04-06T14:12:23.498Z,13.03
2019-04-06T14:15:31.361Z,15.83
2019-04-06T14:18:25.045Z,13.03
2019-04-06T14:21:11.623Z,15.05
2019-04-06T14:24:12.210Z,11.28
2019-04-06T14:27:03.319Z,12.82
2019-04-06T14:29:44.670Z,12.75
2019-04-06T14:32:36.500Z,11.68
2019-04-06T14:35:26.858Z,13.30
2019-04-06T14:38:27.978Z,10.10
2019-04-06T14:41:12.652Z,12.68
2019-04-06T14:44:05.755Z,21.50
2019-04-06T14:46:47.747Z,14.38
2019-04-06T14:49:36.767Z,12.23
2019-04-06T14:52:17.854Z,13.35
2019-04-06T14:55:18.059Z,12.18
2019-04-06T14:58:13.907Z,15.88
2019-04-06T15:01:13.093Z,12.68
2019-04-06T15:04:03.374Z,14.80
2019-04-06T15:06:51.569Z,16.95
2019-04-06T15:09:54.687Z,15.38
2019-04-06T15:12:51.966Z,15.00
2019-04-06T15:15:45.886Z,14.38
2019-04-06T15:18:34.385Z,18.00
2019-04-06T15:21:26.669Z,13.53
2019-04-06T15:24:36.244Z,14.60
2019-04-06T15:27:26.215Z,13.65
2019-04-06T15:30:17.879Z,14.80
2019-04-06T15:33:00.303Z,16.25
2019-04-06T15:35:46.455Z,15.28
2019-04-06T15:38:40.954Z,16.37
2019-04-06T15:41:29.165Z,13.13
2019-04-06T15:44:19.662Z,17.57
2019-04-06T15:46:58.701Z,13.77
2019-04-06T15:49:55.792Z,13.73
2019-04-06T15:52:44.763Z,12.70
2019-04-06T15:55:44.374Z,16.50
2019-04-06T15:58:37.055Z,12.87
2019-04-06T16:01:30.443Z,18.00
2019-04-06T16:04:26.669Z,15.80
2019-04-06T16:07:32.684Z,16.13
2019-04-06T16:10:19.728Z,19.67
2019-04-06T16:13:10.334Z,17.10
2019-04-06T16:15:57.096Z,12.80
2019-04-06T16:18:56.785Z,17.27
2019-04-06T16:21:53.261Z,15.97
2019-04-06T16:24:46.123Z,13.47
2019-04-06T16:27:42.614Z,14.43
2019-04-06T16:30:40.641Z,14.13
2019-04-06T16:33:27.763Z,14.27
2019-04-06T16:36:18.703Z,15.33
2019-04-06T16:39:07.951Z,15.70
2019-04-06T16:42:05.516Z,14.43
2019-04-06T16:44:45.314Z,13.87
2019-04-06T16:47:40.151Z,15.87
2019-04-06T16:50:30.861Z,14.83
2019-04-06T16:53:24.355Z,14.50
2019-04-06T16:56:13.799Z,13.60
2019-04-06T16:59:02.323Z,13.70
2019-04-06T17:01:52.259Z,16.93
2019-04-06T17:04:41.644Z,12.47
2019-04-06T17:07:22.270Z,13.80
2019-04-06T17:10:00.890Z,13.70
2019-04-06T17:12:55.845Z,15.43
2019-04-06T17:15:47.138Z,23.67
2019-04-06T17:18:38.834Z,10.93
2019-04-06T17:21:36.067Z,18.43
2019-04-06T17:24:42.108Z,17.87
2019-04-06T17:27:21.275Z,17.30
2019-04-06T17:30:03.274Z,16.00
2019-04-06T17:32:41.682Z,16.03
2019-04-06T17:35:41.307Z,21.23
2019-04-06T17:38:31.901Z,17.27
2019-04-06T17:41:12.887Z,12.07
2019-04-06T17:44:06.055Z,14.13
2019-04-06T17:47:02.674Z,13.90
2019-04-06T17:49:48.794Z,15.53
2019-04-06T17:52:33.131Z,15.43
2019-04-06T17:55:31.701Z,15.47
2019-04-06T17:58:26.077Z,18.93
2019-04-06T18:01:31.936Z,23.07
2019-04-06T18:04:28.778Z,17.20
2019-04-06T18:07:31.689Z,17.97
2019-04-06T18:10:14.007Z,14.83
2019-04-06T18:13:23.766Z,14.40
2019-04-06T18:15:55.764Z,14.87
2019-04-06T18:18:30.682Z,37.80
2019-04-06T18:21:03.190Z,32.10
2019-04-06T18:23:35.583Z,21.43
2019-04-06T18:26:07.190Z,23.77
2019-04-06T18:28:38.839Z,20.10
2019-04-06T18:31:48.360Z,19.07
2019-04-06T18:34:20.215Z,26.07
2019-04-06T18:37:11.156Z,27.70
2019-04-06T18:39:42.915Z,25.20
2019-04-06T18:42:14.613Z,18.13
2019-04-06T18:44:46.630Z,20.63
2019-04-06T18:47:18.334Z,18.60
2019-04-06T18:49:50.137Z,27.13
2019-04-06T18:52:23.536Z,25.93
2019-04-06T18:54:58.477Z,28.13
2019-04-06T18:57:30.268Z,18.37
2019-04-06T19:00:01.890Z,18.73
2019-04-06T19:02:33.647Z,22.67
2019-04-06T19:05:06.390Z,26.77
2019-04-06T19:07:38.290Z,21.63
2019-04-06T19:10:10.735Z,23.30
2019-04-06T19:12:42.795Z,30.00
2019-04-06T19:15:14.709Z,24.13
2019-04-06T19:17:46.537Z,22.47
2019-04-06T19:20:18.437Z,22.20
2019-04-06T19:22:50.545Z,18.70
2019-04-06T19:25:22.382Z,19.93
2019-04-06T19:27:56.320Z,16.17
2019-04-06T19:30:29.185Z,16.37
2019-04-06T19:33:01.381Z,17.23
2019-04-06T19:35:34.822Z,19.67
2019-04-06T19:38:06.881Z,18.80
2019-04-06T19:40:38.665Z,22.33
2019-04-06T19:43:10.812Z,16.67
2019-04-06T19:45:43.220Z,16.07
2019-04-06T19:48:15.545Z,16.00
2019-04-06T19:50:47.898Z,18.50
2019-04-06T19:53:20.170Z,22.47
2019-04-06T19:55:52.281Z,22.70
2019-04-06T19:58:24.409Z,19.83
2019-04-06T20:00:56.591Z,24.70
2019-04-06T20:03:36.954Z,21.27
2019-04-06T20:06:04.667Z,21.00
2019-04-06T20:08:39.460Z,21.73
2019-04-06T20:11:11.648Z,23.97
2019-04-06T20:13:43.660Z,21.93
2019-04-06T20:16:15.374Z,24.20
2019-04-06T20:18:47.782Z,25.90
2019-04-06T20:21:19.880Z,27.23
2019-04-06T20:23:51.986Z,22.43
2019-04-06T20:26:24.219Z,22.00
2019-04-06T20:28:57.251Z,22.17
2019-04-06T20:31:29.266Z,27.63
2019-04-06T20:34:03.398Z,33.30
2019-04-06T20:36:36.642Z,26.20
2019-04-06T20:39:10.088Z,27.73
2019-04-06T20:41:42.663Z,21.20
2019-04-06T20:44:14.750Z,25.50
2019-04-06T20:46:46.428Z,27.93
2019-04-06T20:49:18.358Z,19.97
2019-04-06T20:51:49.940Z,26.93
2019-04-06T20:54:22.039Z,20.80
2019-04-06T20:56:57.518Z,23.00
2019-04-06T20:59:27.288Z,25.37
2019-04-06T21:02:00.081Z,20.90
2019-04-06T21:04:31.875Z,22.47
2019-04-06T21:07:03.466Z,27.60
2019-04-06T21:09:35.768Z,30.33
2019-04-06T21:12:07.802Z,33.43
2019-04-06T21:14:39.440Z,29.63
2019-04-06T21:17:11.629Z,25.67
2019-04-06T21:19:43.642Z,22.30
2019-04-06T21:22:16.132Z,22.70
2019-04-06T21:24:48.291Z,27.77
2019-04-06T21:27:21.042Z,19.50
2019-04-06T21:29:56.139Z,20.10
2019-04-06T21:32:31.044Z,20.83
2019-04-06T21:35:04.247Z,28.93
2019-04-06T21:37:35.815Z,22.63
2019-04-06T21:40:07.674Z,23.83
2019-04-06T21:42:39.591Z,26.43
2019-04-06T21:45:11.826Z,25.43
2019-04-06T21:47:44.230Z,24.13
2019-04-06T21:50:17.203Z,22.67
2019-04-06T21:52:49.928Z,20.23
2019-04-06T21:55:21.882Z,20.17
2019-04-06T21:57:53.411Z,21.17
2019-04-06T22:00:38.541Z,23.40
2019-04-06T22:03:12.234Z,28.60
2019-04-06T22:05:43.908Z,28.57
2019-04-06T22:08:15.812Z,24.47
2019-04-06T22:10:47.642Z,29.43
2019-04-06T22:13:19.579Z,27.03
2019-04-06T22:15:52.746Z,21.67
2019-04-06T22:18:24.744Z,24.37
2019-04-06T22:20:56.857Z,23.60
2019-04-06T22:23:39.757Z,30.40
2019-04-06T22:26:01.971Z,33.33
2019-04-06T22:28:35.062Z,27.07
2019-04-06T22:31:07.682Z,26.27
2019-04-06T22:33:40.224Z,29.27
2019-04-06T22:36:12.572Z,29.03
2019-04-06T22:38:44.773Z,27.13
2019-04-06T22:41:20.696Z,27.80
2019-04-06T22:43:54.003Z,26.33
2019-04-06T22:46:26.216Z,28.43
2019-04-06T22:48:58.540Z,26.00
2019-04-06T22:51:30.191Z,29.67
2019-04-06T22:54:05.196Z,25.40
2019-04-06T22:56:37.396Z,26.27
2019-04-06T22:59:09.666Z,28.43
2019-04-06T23:01:42.565Z,28.03
2019-04-06T23:04:51.002Z,24.10
2019-04-06T23:07:24.471Z,22.80
2019-04-06T23:09:56.120Z,31.20
2019-04-06T23:12:27.755Z,29.73
2019-04-06T23:14:59.440Z,27.67
2019-04-06T23:17:31.814Z,26.13
2019-04-06T23:20:04.652Z,28.27
2019-04-06T23:22:36.516Z,26.57
2019-04-06T23:25:10.574Z,27.97
2019-04-06T23:27:42.975Z,29.53
2019-04-06T23:30:21.450Z,31.03
2019-04-06T23:32:53.511Z,21.87
2019-04-06T23:35:25.362Z,28.43
2019-04-06T23:37:57.912Z,25.93
2019-04-06T23:40:29.568Z,25.93
2019-04-06T23:43:01.801Z,30.67
2019-04-06T23:45:34.401Z,25.77
2019-04-06T23:48:08.580Z,28.97
2019-04-06T23:50:43.152Z,25.73
2019-04-06T23:53:16.964Z,32.23
2019-04-06T23:55:49.332Z,27.63
2019-04-06T23:58:23.760Z,26.77
